sensor_id;sensor_type;location;lat;lon;timestamp;temperature;humidity
11446;DHT22;5779;64.178;15.432;2022-08-19T00:00:25;13.80;99.90
11446;DHT22;5779;64.178;15.432;2022-08-19T00:03:12;13.80;99.90
11446;DHT22;5779;64.178;15.432;2022-08-19T00:05:59;13.90;99.90
11446;DHT22;5779;64.178;15.432;2022-08-19T00:08:46;13.90;99.90
11446;DHT22;5779;64.178;15.432;2022-08-19T00:11:33;13.90;99.90
11446;DHT22;5779;64.178;15.432;2022-08-19T00:14:21;13.90;99.90
11446;DHT22;5779;64.178;15.432;2022-08-19T00:17:10;13.90;99.90
11446;DHT22;5779;64.178;15.432;2022-08-19T00:19:57;13.90;99.90
11446;DHT22;5779;64.178;15.432;2022-08-19T00:22:45;13.80;99.90
11446;DHT22;5779;64.178;15.432;2022-08-19T00:25:33;13.80;99.90
11446;DHT22;5779;64.178;15.432;2022-08-19T00:28:21;13.80;99.90
11446;DHT22;5779;64.178;15.432;2022-08-19T00:31:08;13.80;99.90
11446;DHT22;5779;64.178;15.432;2022-08-19T00:33:56;13.80;99.90
11446;DHT22;5779;64.178;15.432;2022-08-19T00:36:43;13.80;99.90
11446;DHT22;5779;64.178;15.432;2022-08-19T00:39:29;13.80;99.90
11446;DHT22;5779;64.178;15.432;2022-08-19T00:42:16;13.80;99.90
11446;DHT22;5779;64.178;15.432;2022-08-19T00:45:10;13.80;99.90
11446;DHT22;5779;64.178;15.432;2022-08-19T00:47:58;13.90;99.90
11446;DHT22;5779;64.178;15.432;2022-08-19T00:50:52;14.00;99.90
11446;DHT22;5779;64.178;15.432;2022-08-19T00:53:40;14.00;99.90
11446;DHT22;5779;64.178;15.432;2022-08-19T00:56:28;14.00;99.90
11446;DHT22;5779;64.178;15.432;2022-08-19T00:59:16;14.10;99.90
11446;DHT22;5779;64.178;15.432;2022-08-19T01:02:04;13.90;99.90
11446;DHT22;5779;64.178;15.432;2022-08-19T01:04:51;13.90;99.90
11446;DHT22;5779;64.178;15.432;2022-08-19T01:07:40;13.90;99.90
11446;DHT22;5779;64.178;15.432;2022-08-19T01:10:29;14.00;99.90
11446;DHT22;5779;64.178;15.432;2022-08-19T01:13:17;13.90;99.90
11446;DHT22;5779;64.178;15.432;2022-08-19T01:16:08;13.80;99.90
11446;DHT22;5779;64.178;15.432;2022-08-19T01:18:56;13.90;99.90
11446;DHT22;5779;64.178;15.432;2022-08-19T01:21:48;13.90;99.90
11446;DHT22;5779;64.178;15.432;2022-08-19T01:24:40;13.80;99.90
11446;DHT22;5779;64.178;15.432;2022-08-19T01:27:26;13.70;99.90
11446;DHT22;5779;64.178;15.432;2022-08-19T01:30:15;13.70;99.90
11446;DHT22;5779;64.178;15.432;2022-08-19T01:33:03;13.80;99.90
11446;DHT22;5779;64.178;15.432;2022-08-19T01:35:50;13.70;99.90
11446;DHT22;5779;64.178;15.432;2022-08-19T01:38:39;13.70;99.90
11446;DHT22;5779;64.178;15.432;2022-08-19T01:41:28;13.80;99.90
11446;DHT22;5779;64.178;15.432;2022-08-19T01:44:15;13.70;99.90
11446;DHT22;5779;64.178;15.432;2022-08-19T01:47:02;13.70;99.90
11446;DHT22;5779;64.178;15.432;2022-08-19T01:49:49;13.70;99.90
11446;DHT22;5779;64.178;15.432;2022-08-19T01:52:36;13.80;99.90
11446;DHT22;5779;64.178;15.432;2022-08-19T01:55:23;13.60;99.90
11446;DHT22;5779;64.178;15.432;2022-08-19T01:58:14;13.70;99.90
11446;DHT22;5779;64.178;15.432;2022-08-19T02:01:01;13.60;99.90
11446;DHT22;5779;64.178;15.432;2022-08-19T02:03:49;13.60;99.90
11446;DHT22;5779;64.178;15.432;2022-08-19T02:06:37;13.70;99.90
11446;DHT22;5779;64.178;15.432;2022-08-19T02:09:24;13.70;99.90
11446;DHT22;5779;64.178;15.432;2022-08-19T02:12:10;13.80;99.90
11446;DHT22;5779;64.178;15.432;2022-08-19T02:14:58;13.80;99.90
11446;DHT22;5779;64.178;15.432;2022-08-19T02:17:46;13.90;99.90
11446;DHT22;5779;64.178;15.432;2022-08-19T02:20:33;13.80;99.90
11446;DHT22;5779;64.178;15.432;2022-08-19T03:53:35;12.70;99.90
11446;DHT22;5779;64.178;15.432;2022-08-19T03:56:22;13.40;99.90
11446;DHT22;5779;64.178;15.432;2022-08-19T03:59:12;13.30;99.90
11446;DHT22;5779;64.178;15.432;2022-08-19T04:02:02;13.50;99.90
11446;DHT22;5779;64.178;15.432;2022-08-19T04:04:48;13.40;99.90
11446;DHT22;5779;64.178;15.432;2022-08-19T04:07:35;13.40;99.90
11446;DHT22;5779;64.178;15.432;2022-08-19T04:10:22;13.40;99.90
11446;DHT22;5779;64.178;15.432;2022-08-19T04:13:09;13.50;99.90
11446;DHT22;5779;64.178;15.432;2022-08-19T04:15:56;13.40;99.90
11446;DHT22;5779;64.178;15.432;2022-08-19T04:18:42;13.40;99.90
11446;DHT22;5779;64.178;15.432;2022-08-19T04:21:29;13.50;99.90
11446;DHT22;5779;64.178;15.432;2022-08-19T04:24:16;13.40;99.90
11446;DHT22;5779;64.178;15.432;2022-08-19T04:27:05;13.40;99.90
11446;DHT22;5779;64.178;15.432;2022-08-19T04:29:52;13.40;99.90
11446;DHT22;5779;64.178;15.432;2022-08-19T04:32:40;13.50;99.90
11446;DHT22;5779;64.178;15.432;2022-08-19T04:35:28;13.50;99.90
11446;DHT22;5779;64.178;15.432;2022-08-19T04:38:21;13.40;99.90
11446;DHT22;5779;64.178;15.432;2022-08-19T04:41:08;13.40;99.90
11446;DHT22;5779;64.178;15.432;2022-08-19T04:44:14;13.40;99.90
11446;DHT22;5779;64.178;15.432;2022-08-19T04:47:03;13.40;99.90
11446;DHT22;5779;64.178;15.432;2022-08-19T04:49:51;13.40;99.90
11446;DHT22;5779;64.178;15.432;2022-08-19T04:52:37;13.50;99.90
11446;DHT22;5779;64.178;15.432;2022-08-19T04:55:27;13.50;99.90
11446;DHT22;5779;64.178;15.432;2022-08-19T04:58:14;13.50;99.90
11446;DHT22;5779;64.178;15.432;2022-08-19T05:01:03;13.50;99.90
11446;DHT22;5779;64.178;15.432;2022-08-19T05:03:50;13.50;99.90
11446;DHT22;5779;64.178;15.432;2022-08-19T05:06:38;13.50;99.90
11446;DHT22;5779;64.178;15.432;2022-08-19T05:09:25;13.60;99.90
11446;DHT22;5779;64.178;15.432;2022-08-19T05:12:12;13.60;99.90
11446;DHT22;5779;64.178;15.432;2022-08-19T05:14:59;13.70;99.90
11446;DHT22;5779;64.178;15.432;2022-08-19T05:17:47;13.70;99.90
11446;DHT22;5779;64.178;15.432;2022-08-19T05:20:47;13.70;99.90
11446;DHT22;5779;64.178;15.432;2022-08-19T05:23:51;13.70;99.90
11446;DHT22;5779;64.178;15.432;2022-08-19T05:26:40;13.70;99.90
11446;DHT22;5779;64.178;15.432;2022-08-19T05:29:28;13.80;99.90
11446;DHT22;5779;64.178;15.432;2022-08-19T05:32:14;13.80;99.90
11446;DHT22;5779;64.178;15.432;2022-08-19T05:35:03;13.80;99.90
11446;DHT22;5779;64.178;15.432;2022-08-19T05:37:50;13.80;99.90
11446;DHT22;5779;64.178;15.432;2022-08-19T05:40:39;13.80;99.90
11446;DHT22;5779;64.178;15.432;2022-08-19T05:43:26;13.80;99.90
11446;DHT22;5779;64.178;15.432;2022-08-19T05:46:17;13.80;99.90
11446;DHT22;5779;64.178;15.432;2022-08-19T05:49:05;13.80;99.90
11446;DHT22;5779;64.178;15.432;2022-08-19T05:51:53;13.80;99.90
11446;DHT22;5779;64.178;15.432;2022-08-19T05:54:41;13.80;99.90
11446;DHT22;5779;64.178;15.432;2022-08-19T05:57:30;13.90;99.90
11446;DHT22;5779;64.178;15.432;2022-08-19T06:00:17;13.90;99.90
11446;DHT22;5779;64.178;15.432;2022-08-19T06:03:03;13.90;99.90
11446;DHT22;5779;64.178;15.432;2022-08-19T06:05:50;14.00;99.90
11446;DHT22;5779;64.178;15.432;2022-08-19T06:08:41;14.10;99.90
11446;DHT22;5779;64.178;15.432;2022-08-19T06:11:38;14.10;99.90
11446;DHT22;5779;64.178;15.432;2022-08-19T06:14:26;14.00;99.90
11446;DHT22;5779;64.178;15.432;2022-08-19T06:17:13;14.10;99.90
11446;DHT22;5779;64.178;15.432;2022-08-19T06:19:59;14.10;99.90
11446;DHT22;5779;64.178;15.432;2022-08-19T06:22:47;14.10;99.90
11446;DHT22;5779;64.178;15.432;2022-08-19T06:25:39;14.10;99.90
11446;DHT22;5779;64.178;15.432;2022-08-19T06:28:26;14.00;99.90
11446;DHT22;5779;64.178;15.432;2022-08-19T06:31:13;13.90;99.90
11446;DHT22;5779;64.178;15.432;2022-08-19T06:34:01;13.90;99.90
11446;DHT22;5779;64.178;15.432;2022-08-19T06:36:50;13.90;99.90
11446;DHT22;5779;64.178;15.432;2022-08-19T06:39:39;14.10;99.90
11446;DHT22;5779;64.178;15.432;2022-08-19T06:42:28;14.20;99.90
11446;DHT22;5779;64.178;15.432;2022-08-19T06:45:16;14.20;99.90
11446;DHT22;5779;64.178;15.432;2022-08-19T06:48:03;14.20;99.90
11446;DHT22;5779;64.178;15.432;2022-08-19T06:50:49;14.20;99.90
11446;DHT22;5779;64.178;15.432;2022-08-19T06:53:36;14.30;99.90
11446;DHT22;5779;64.178;15.432;2022-08-19T06:56:25;14.20;99.90
11446;DHT22;5779;64.178;15.432;2022-08-19T06:59:18;14.20;99.90
11446;DHT22;5779;64.178;15.432;2022-08-19T07:02:06;14.20;99.90
11446;DHT22;5779;64.178;15.432;2022-08-19T07:04:53;14.30;99.90
11446;DHT22;5779;64.178;15.432;2022-08-19T07:07:42;14.30;99.90
11446;DHT22;5779;64.178;15.432;2022-08-19T07:10:28;14.30;99.90
11446;DHT22;5779;64.178;15.432;2022-08-19T07:13:17;14.40;99.90
11446;DHT22;5779;64.178;15.432;2022-08-19T07:16:06;14.50;99.90
11446;DHT22;5779;64.178;15.432;2022-08-19T07:18:54;14.40;99.90
11446;DHT22;5779;64.178;15.432;2022-08-19T07:21:41;14.40;99.90
11446;DHT22;5779;64.178;15.432;2022-08-19T07:24:28;14.40;99.90
11446;DHT22;5779;64.178;15.432;2022-08-19T07:27:15;14.40;99.90
11446;DHT22;5779;64.178;15.432;2022-08-19T07:30:03;14.50;99.90
11446;DHT22;5779;64.178;15.432;2022-08-19T07:32:52;14.50;99.90
11446;DHT22;5779;64.178;15.432;2022-08-19T07:35:38;14.60;99.90
11446;DHT22;5779;64.178;15.432;2022-08-19T07:38:25;14.60;99.90
11446;DHT22;5779;64.178;15.432;2022-08-19T07:41:14;14.60;99.90
11446;DHT22;5779;64.178;15.432;2022-08-19T07:44:02;14.60;99.90
11446;DHT22;5779;64.178;15.432;2022-08-19T07:46:51;14.60;99.90
11446;DHT22;5779;64.178;15.432;2022-08-19T07:49:39;14.60;99.90
11446;DHT22;5779;64.178;15.432;2022-08-19T07:52:27;14.60;99.90
11446;DHT22;5779;64.178;15.432;2022-08-19T07:55:13;14.60;99.90
11446;DHT22;5779;64.178;15.432;2022-08-19T07:58:00;14.60;99.90
11446;DHT22;5779;64.178;15.432;2022-08-19T08:00:48;14.50;99.90
11446;DHT22;5779;64.178;15.432;2022-08-19T08:03:36;14.60;99.90
11446;DHT22;5779;64.178;15.432;2022-08-19T08:06:42;14.70;99.90
11446;DHT22;5779;64.178;15.432;2022-08-19T08:09:46;14.70;99.90
11446;DHT22;5779;64.178;15.432;2022-08-19T08:12:37;14.80;99.90
11446;DHT22;5779;64.178;15.432;2022-08-19T08:15:26;14.80;99.90
11446;DHT22;5779;64.178;15.432;2022-08-19T08:18:12;14.80;99.90
11446;DHT22;5779;64.178;15.432;2022-08-19T08:20:59;14.80;99.90
11446;DHT22;5779;64.178;15.432;2022-08-19T08:23:48;14.80;99.90
11446;DHT22;5779;64.178;15.432;2022-08-19T08:26:34;14.80;99.90
11446;DHT22;5779;64.178;15.432;2022-08-19T08:29:21;14.80;99.90
11446;DHT22;5779;64.178;15.432;2022-08-19T08:32:07;14.80;99.90
11446;DHT22;5779;64.178;15.432;2022-08-19T08:34:54;14.90;99.90
11446;DHT22;5779;64.178;15.432;2022-08-19T08:37:41;14.90;99.90
11446;DHT22;5779;64.178;15.432;2022-08-19T08:40:34;15.00;99.90
11446;DHT22;5779;64.178;15.432;2022-08-19T08:43:27;15.00;99.90
11446;DHT22;5779;64.178;15.432;2022-08-19T08:46:18;15.10;99.90
11446;DHT22;5779;64.178;15.432;2022-08-19T08:49:17;15.20;99.90
11446;DHT22;5779;64.178;15.432;2022-08-19T08:52:18;15.20;99.90
11446;DHT22;5779;64.178;15.432;2022-08-19T08:55:10;15.20;99.90
11446;DHT22;5779;64.178;15.432;2022-08-19T08:58:01;15.30;99.90
11446;DHT22;5779;64.178;15.432;2022-08-19T09:00:49;15.40;99.90
11446;DHT22;5779;64.178;15.432;2022-08-19T09:03:37;15.40;99.90
11446;DHT22;5779;64.178;15.432;2022-08-19T09:06:32;15.40;99.90
11446;DHT22;5779;64.178;15.432;2022-08-19T09:09:29;15.40;99.90
11446;DHT22;5779;64.178;15.432;2022-08-19T09:12:22;15.50;99.90
11446;DHT22;5779;64.178;15.432;2022-08-19T09:15:15;15.50;99.90
11446;DHT22;5779;64.178;15.432;2022-08-19T09:18:04;15.60;99.90
11446;DHT22;5779;64.178;15.432;2022-08-19T09:20:51;15.60;99.90
11446;DHT22;5779;64.178;15.432;2022-08-19T09:23:38;15.60;99.90
11446;DHT22;5779;64.178;15.432;2022-08-19T09:26:24;15.60;99.90
11446;DHT22;5779;64.178;15.432;2022-08-19T09:29:10;15.60;99.90
11446;DHT22;5779;64.178;15.432;2022-08-19T09:31:58;15.70;99.90
11446;DHT22;5779;64.178;15.432;2022-08-19T09:34:45;15.80;99.90
11446;DHT22;5779;64.178;15.432;2022-08-19T09:37:31;15.90;99.90
11446;DHT22;5779;64.178;15.432;2022-08-19T09:40:18;15.90;99.90
11446;DHT22;5779;64.178;15.432;2022-08-19T09:43:05;15.90;99.90
11446;DHT22;5779;64.178;15.432;2022-08-19T09:45:52;16.00;99.90
11446;DHT22;5779;64.178;15.432;2022-08-19T09:48:40;16.20;99.90
11446;DHT22;5779;64.178;15.432;2022-08-19T09:51:28;16.20;99.90
11446;DHT22;5779;64.178;15.432;2022-08-19T09:54:14;16.30;99.90
11446;DHT22;5779;64.178;15.432;2022-08-19T09:57:01;16.40;99.90
11446;DHT22;5779;64.178;15.432;2022-08-19T09:59:47;16.50;99.90
11446;DHT22;5779;64.178;15.432;2022-08-19T10:02:34;16.50;99.90
11446;DHT22;5779;64.178;15.432;2022-08-19T10:05:23;16.60;99.90
11446;DHT22;5779;64.178;15.432;2022-08-19T10:08:29;16.70;99.90
11446;DHT22;5779;64.178;15.432;2022-08-19T10:11:17;16.70;99.90
11446;DHT22;5779;64.178;15.432;2022-08-19T10:14:04;16.70;99.90
11446;DHT22;5779;64.178;15.432;2022-08-19T10:16:51;16.70;99.90
11446;DHT22;5779;64.178;15.432;2022-08-19T10:19:38;16.80;99.90
11446;DHT22;5779;64.178;15.432;2022-08-19T10:22:26;16.90;99.90
11446;DHT22;5779;64.178;15.432;2022-08-19T10:25:13;16.90;99.90
11446;DHT22;5779;64.178;15.432;2022-08-19T10:28:01;16.80;99.90
11446;DHT22;5779;64.178;15.432;2022-08-19T10:30:48;16.80;99.90
11446;DHT22;5779;64.178;15.432;2022-08-19T10:33:34;16.80;99.90
11446;DHT22;5779;64.178;15.432;2022-08-19T10:36:23;16.90;99.90
11446;DHT22;5779;64.178;15.432;2022-08-19T10:39:12;16.90;99.90
11446;DHT22;5779;64.178;15.432;2022-08-19T10:41:59;17.00;99.90
11446;DHT22;5779;64.178;15.432;2022-08-19T10:44:45;17.00;99.90
11446;DHT22;5779;64.178;15.432;2022-08-19T10:47:33;17.00;99.90
11446;DHT22;5779;64.178;15.432;2022-08-19T10:50:19;17.10;99.90
11446;DHT22;5779;64.178;15.432;2022-08-19T10:53:22;17.10;99.90
11446;DHT22;5779;64.178;15.432;2022-08-19T10:56:12;17.10;99.90
11446;DHT22;5779;64.178;15.432;2022-08-19T10:59:17;17.10;99.90
11446;DHT22;5779;64.178;15.432;2022-08-19T11:02:06;17.00;99.90
11446;DHT22;5779;64.178;15.432;2022-08-19T11:04:54;16.70;99.90
11446;DHT22;5779;64.178;15.432;2022-08-19T11:07:41;16.50;99.90
11446;DHT22;5779;64.178;15.432;2022-08-19T11:10:29;16.40;99.90
11446;DHT22;5779;64.178;15.432;2022-08-19T11:13:17;16.40;99.90
11446;DHT22;5779;64.178;15.432;2022-08-19T11:16:07;16.40;99.90
11446;DHT22;5779;64.178;15.432;2022-08-19T11:18:57;16.40;99.90
11446;DHT22;5779;64.178;15.432;2022-08-19T11:21:45;16.40;99.90
11446;DHT22;5779;64.178;15.432;2022-08-19T11:24:32;16.50;99.90
11446;DHT22;5779;64.178;15.432;2022-08-19T11:27:19;16.60;99.90
11446;DHT22;5779;64.178;15.432;2022-08-19T11:30:09;16.60;99.90
11446;DHT22;5779;64.178;15.432;2022-08-19T11:32:55;16.60;99.90
11446;DHT22;5779;64.178;15.432;2022-08-19T11:35:42;16.80;99.90
11446;DHT22;5779;64.178;15.432;2022-08-19T11:38:31;16.80;99.90
11446;DHT22;5779;64.178;15.432;2022-08-19T11:41:19;16.90;99.90
11446;DHT22;5779;64.178;15.432;2022-08-19T11:44:06;16.90;99.90
11446;DHT22;5779;64.178;15.432;2022-08-19T11:46:54;16.90;99.90
11446;DHT22;5779;64.178;15.432;2022-08-19T11:49:41;16.90;99.90
11446;DHT22;5779;64.178;15.432;2022-08-19T11:52:28;17.00;99.90
11446;DHT22;5779;64.178;15.432;2022-08-19T11:55:15;16.90;99.90
11446;DHT22;5779;64.178;15.432;2022-08-19T11:58:02;17.00;99.90
11446;DHT22;5779;64.178;15.432;2022-08-19T12:00:51;17.10;99.90
11446;DHT22;5779;64.178;15.432;2022-08-19T12:03:39;17.10;99.90
11446;DHT22;5779;64.178;15.432;2022-08-19T12:06:27;17.00;99.90
11446;DHT22;5779;64.178;15.432;2022-08-19T12:09:14;17.10;99.90
11446;DHT22;5779;64.178;15.432;2022-08-19T12:12:01;17.30;99.90
11446;DHT22;5779;64.178;15.432;2022-08-19T12:14:48;17.40;99.90
11446;DHT22;5779;64.178;15.432;2022-08-19T12:17:35;17.60;99.90
11446;DHT22;5779;64.178;15.432;2022-08-19T12:20:24;17.70;99.90
11446;DHT22;5779;64.178;15.432;2022-08-19T12:23:11;17.90;99.90
11446;DHT22;5779;64.178;15.432;2022-08-19T12:25:57;17.90;99.90
11446;DHT22;5779;64.178;15.432;2022-08-19T12:28:44;17.80;99.90
11446;DHT22;5779;64.178;15.432;2022-08-19T12:31:31;18.00;99.90
11446;DHT22;5779;64.178;15.432;2022-08-19T12:34:18;18.10;99.90
11446;DHT22;5779;64.178;15.432;2022-08-19T12:37:06;18.20;99.90
11446;DHT22;5779;64.178;15.432;2022-08-19T12:39:53;18.10;99.90
11446;DHT22;5779;64.178;15.432;2022-08-19T12:42:40;18.10;99.90
11446;DHT22;5779;64.178;15.432;2022-08-19T12:45:27;18.00;99.90
11446;DHT22;5779;64.178;15.432;2022-08-19T12:48:13;17.90;99.90
11446;DHT22;5779;64.178;15.432;2022-08-19T12:51:05;17.80;99.90
11446;DHT22;5779;64.178;15.432;2022-08-19T12:53:53;17.80;99.90
11446;DHT22;5779;64.178;15.432;2022-08-19T12:56:40;17.90;99.90
11446;DHT22;5779;64.178;15.432;2022-08-19T12:59:27;18.00;99.90
11446;DHT22;5779;64.178;15.432;2022-08-19T13:02:13;18.20;99.90
11446;DHT22;5779;64.178;15.432;2022-08-19T13:05:00;18.20;99.90
11446;DHT22;5779;64.178;15.432;2022-08-19T13:07:46;18.30;99.90
11446;DHT22;5779;64.178;15.432;2022-08-19T13:10:35;18.60;99.90
11446;DHT22;5779;64.178;15.432;2022-08-19T13:13:23;18.70;99.90
11446;DHT22;5779;64.178;15.432;2022-08-19T13:16:11;18.70;99.90
11446;DHT22;5779;64.178;15.432;2022-08-19T13:18:58;18.80;99.90
11446;DHT22;5779;64.178;15.432;2022-08-19T13:21:49;18.80;99.90
11446;DHT22;5779;64.178;15.432;2022-08-19T13:24:36;18.90;99.90
11446;DHT22;5779;64.178;15.432;2022-08-19T13:27:24;18.80;99.90
11446;DHT22;5779;64.178;15.432;2022-08-19T13:30:12;18.80;99.90
11446;DHT22;5779;64.178;15.432;2022-08-19T13:33:18;18.80;99.90
11446;DHT22;5779;64.178;15.432;2022-08-19T13:36:05;18.70;99.90
11446;DHT22;5779;64.178;15.432;2022-08-19T13:38:52;18.60;99.90
11446;DHT22;5779;64.178;15.432;2022-08-19T13:41:44;18.60;99.90
11446;DHT22;5779;64.178;15.432;2022-08-19T13:44:36;18.70;99.90
11446;DHT22;5779;64.178;15.432;2022-08-19T13:47:25;18.70;99.90
11446;DHT22;5779;64.178;15.432;2022-08-19T13:50:13;18.80;99.90
11446;DHT22;5779;64.178;15.432;2022-08-19T13:53:01;18.80;99.90
11446;DHT22;5779;64.178;15.432;2022-08-19T13:55:49;18.70;99.90
11446;DHT22;5779;64.178;15.432;2022-08-19T13:58:39;18.60;99.90
11446;DHT22;5779;64.178;15.432;2022-08-19T14:01:29;18.40;99.90
11446;DHT22;5779;64.178;15.432;2022-08-19T14:04:16;18.40;99.90
11446;DHT22;5779;64.178;15.432;2022-08-19T14:07:03;18.40;99.90
11446;DHT22;5779;64.178;15.432;2022-08-19T14:09:50;18.50;99.90
11446;DHT22;5779;64.178;15.432;2022-08-19T14:12:37;18.40;99.90
11446;DHT22;5779;64.178;15.432;2022-08-19T14:15:25;18.40;99.90
11446;DHT22;5779;64.178;15.432;2022-08-19T14:18:15;18.50;99.90
11446;DHT22;5779;64.178;15.432;2022-08-19T14:21:02;18.50;99.90
11446;DHT22;5779;64.178;15.432;2022-08-19T14:23:51;18.50;99.90
11446;DHT22;5779;64.178;15.432;2022-08-19T14:26:38;18.40;99.90
11446;DHT22;5779;64.178;15.432;2022-08-19T14:29:25;18.40;99.90
11446;DHT22;5779;64.178;15.432;2022-08-19T14:32:13;18.50;99.90
11446;DHT22;5779;64.178;15.432;2022-08-19T14:35:03;18.40;99.90
11446;DHT22;5779;64.178;15.432;2022-08-19T14:37:51;18.40;99.90
11446;DHT22;5779;64.178;15.432;2022-08-19T14:40:40;18.50;99.90
11446;DHT22;5779;64.178;15.432;2022-08-19T14:43:27;18.40;99.90
11446;DHT22;5779;64.178;15.432;2022-08-19T14:46:17;18.50;99.90
11446;DHT22;5779;64.178;15.432;2022-08-19T14:49:04;18.40;99.90
11446;DHT22;5779;64.178;15.432;2022-08-19T14:51:52;18.50;99.90
11446;DHT22;5779;64.178;15.432;2022-08-19T14:54:39;18.50;99.90
11446;DHT22;5779;64.178;15.432;2022-08-19T14:57:26;18.60;99.90
11446;DHT22;5779;64.178;15.432;2022-08-19T15:00:14;18.60;99.90
11446;DHT22;5779;64.178;15.432;2022-08-19T15:03:01;18.60;99.90
11446;DHT22;5779;64.178;15.432;2022-08-19T15:05:47;18.60;99.90
11446;DHT22;5779;64.178;15.432;2022-08-19T15:08:37;18.60;99.90
11446;DHT22;5779;64.178;15.432;2022-08-19T15:11:25;18.70;99.90
11446;DHT22;5779;64.178;15.432;2022-08-19T15:14:12;18.70;99.90
11446;DHT22;5779;64.178;15.432;2022-08-19T15:17:01;18.70;99.90
11446;DHT22;5779;64.178;15.432;2022-08-19T15:19:49;18.70;99.90
11446;DHT22;5779;64.178;15.432;2022-08-19T15:22:35;18.90;99.90
11446;DHT22;5779;64.178;15.432;2022-08-19T15:25:23;18.80;99.90
11446;DHT22;5779;64.178;15.432;2022-08-19T15:28:10;19.00;99.90
11446;DHT22;5779;64.178;15.432;2022-08-19T15:30:57;18.80;99.90
11446;DHT22;5779;64.178;15.432;2022-08-19T15:33:44;18.80;99.90
11446;DHT22;5779;64.178;15.432;2022-08-19T15:36:31;18.80;99.90
11446;DHT22;5779;64.178;15.432;2022-08-19T15:39:17;18.70;99.90
11446;DHT22;5779;64.178;15.432;2022-08-19T15:42:06;18.70;99.90
11446;DHT22;5779;64.178;15.432;2022-08-19T15:44:53;18.70;99.90
11446;DHT22;5779;64.178;15.432;2022-08-19T15:47:40;18.70;99.90
11446;DHT22;5779;64.178;15.432;2022-08-19T15:50:29;18.70;99.90
11446;DHT22;5779;64.178;15.432;2022-08-19T15:53:18;18.80;99.90
11446;DHT22;5779;64.178;15.432;2022-08-19T15:56:05;18.90;99.90
11446;DHT22;5779;64.178;15.432;2022-08-19T15:58:53;19.30;99.90
11446;DHT22;5779;64.178;15.432;2022-08-19T16:01:57;19.30;99.90
11446;DHT22;5779;64.178;15.432;2022-08-19T16:05:01;19.40;99.90
11446;DHT22;5779;64.178;15.432;2022-08-19T16:08:06;19.40;99.90
11446;DHT22;5779;64.178;15.432;2022-08-19T16:10:54;19.60;99.90
11446;DHT22;5779;64.178;15.432;2022-08-19T16:13:40;19.80;99.90
11446;DHT22;5779;64.178;15.432;2022-08-19T16:16:30;19.80;99.90
11446;DHT22;5779;64.178;15.432;2022-08-19T16:19:18;19.70;99.90
11446;DHT22;5779;64.178;15.432;2022-08-19T16:22:05;19.60;99.90
11446;DHT22;5779;64.178;15.432;2022-08-19T16:28:15;19.30;99.90
11446;DHT22;5779;64.178;15.432;2022-08-19T16:31:02;19.10;99.90
11446;DHT22;5779;64.178;15.432;2022-08-19T16:33:50;19.00;99.90
11446;DHT22;5779;64.178;15.432;2022-08-19T16:36:37;18.90;99.90
11446;DHT22;5779;64.178;15.432;2022-08-19T16:39:25;18.90;99.90
11446;DHT22;5779;64.178;15.432;2022-08-19T16:42:12;18.90;99.90
11446;DHT22;5779;64.178;15.432;2022-08-19T16:45:01;18.90;99.90
11446;DHT22;5779;64.178;15.432;2022-08-19T16:47:49;19.00;99.90
11446;DHT22;5779;64.178;15.432;2022-08-19T16:50:37;18.70;99.90
11446;DHT22;5779;64.178;15.432;2022-08-19T16:53:25;18.70;99.90
11446;DHT22;5779;64.178;15.432;2022-08-19T16:56:12;18.80;99.90
11446;DHT22;5779;64.178;15.432;2022-08-19T16:58:59;18.80;99.90
11446;DHT22;5779;64.178;15.432;2022-08-19T17:01:46;18.80;99.90
11446;DHT22;5779;64.178;15.432;2022-08-19T17:04:32;18.80;99.90
11446;DHT22;5779;64.178;15.432;2022-08-19T17:07:20;18.70;99.90
11446;DHT22;5779;64.178;15.432;2022-08-19T17:10:08;18.60;99.90
11446;DHT22;5779;64.178;15.432;2022-08-19T17:12:55;18.60;99.90
11446;DHT22;5779;64.178;15.432;2022-08-19T17:15:42;18.60;99.90
11446;DHT22;5779;64.178;15.432;2022-08-19T17:18:29;18.50;99.90
11446;DHT22;5779;64.178;15.432;2022-08-19T17:21:17;18.50;99.90
11446;DHT22;5779;64.178;15.432;2022-08-19T17:24:06;18.60;99.90
11446;DHT22;5779;64.178;15.432;2022-08-19T17:26:53;18.60;99.90
11446;DHT22;5779;64.178;15.432;2022-08-19T17:29:40;18.50;99.90
11446;DHT22;5779;64.178;15.432;2022-08-19T17:32:27;18.60;99.90
11446;DHT22;5779;64.178;15.432;2022-08-19T17:35:14;18.60;99.90
11446;DHT22;5779;64.178;15.432;2022-08-19T17:38:03;18.60;99.90
11446;DHT22;5779;64.178;15.432;2022-08-19T17:40:52;18.50;99.90
11446;DHT22;5779;64.178;15.432;2022-08-19T17:43:45;18.50;99.90
11446;DHT22;5779;64.178;15.432;2022-08-19T17:46:31;18.50;99.90
11446;DHT22;5779;64.178;15.432;2022-08-19T17:49:18;18.50;99.90
11446;DHT22;5779;64.178;15.432;2022-08-19T17:52:05;18.40;99.90
11446;DHT22;5779;64.178;15.432;2022-08-19T17:54:51;18.50;99.90
11446;DHT22;5779;64.178;15.432;2022-08-19T17:57:40;18.50;99.90
11446;DHT22;5779;64.178;15.432;2022-08-19T18:00:27;18.40;99.90
11446;DHT22;5779;64.178;15.432;2022-08-19T18:03:14;18.40;99.90
11446;DHT22;5779;64.178;15.432;2022-08-19T18:06:01;18.50;99.90
11446;DHT22;5779;64.178;15.432;2022-08-19T18:08:48;18.60;99.90
11446;DHT22;5779;64.178;15.432;2022-08-19T18:11:35;18.60;99.90
11446;DHT22;5779;64.178;15.432;2022-08-19T18:14:25;18.60;99.90
11446;DHT22;5779;64.178;15.432;2022-08-19T18:17:14;18.60;99.90
11446;DHT22;5779;64.178;15.432;2022-08-19T18:20:04;18.60;99.90
11446;DHT22;5779;64.178;15.432;2022-08-19T18:22:52;18.60;99.90
11446;DHT22;5779;64.178;15.432;2022-08-19T18:25:41;18.60;99.90
11446;DHT22;5779;64.178;15.432;2022-08-19T18:28:28;18.60;99.90
11446;DHT22;5779;64.178;15.432;2022-08-19T18:31:16;18.50;99.90
11446;DHT22;5779;64.178;15.432;2022-08-19T18:34:02;18.50;99.90
11446;DHT22;5779;64.178;15.432;2022-08-19T18:36:49;18.50;99.90
11446;DHT22;5779;64.178;15.432;2022-08-19T18:39:36;18.40;99.90
11446;DHT22;5779;64.178;15.432;2022-08-19T18:42:43;18.30;99.90
11446;DHT22;5779;64.178;15.432;2022-08-19T18:45:48;18.30;99.90
11446;DHT22;5779;64.178;15.432;2022-08-19T18:48:54;18.30;99.90
11446;DHT22;5779;64.178;15.432;2022-08-19T18:51:50;18.20;99.90
11446;DHT22;5779;64.178;15.432;2022-08-19T18:54:36;18.10;99.90
11446;DHT22;5779;64.178;15.432;2022-08-19T18:57:24;18.00;99.90
11446;DHT22;5779;64.178;15.432;2022-08-19T19:00:12;18.00;99.90
11446;DHT22;5779;64.178;15.432;2022-08-19T19:02:59;18.10;99.90
11446;DHT22;5779;64.178;15.432;2022-08-19T19:05:47;18.00;99.90
11446;DHT22;5779;64.178;15.432;2022-08-19T19:08:35;17.90;99.90
11446;DHT22;5779;64.178;15.432;2022-08-19T19:11:25;17.80;99.90
11446;DHT22;5779;64.178;15.432;2022-08-19T19:14:14;17.70;99.90
11446;DHT22;5779;64.178;15.432;2022-08-19T19:17:03;17.70;99.90